Time;durP1;ratioP1;P1;durP2;ratioP2;P2;SDS_P1;SDS_P2;PMS_P1;PMS_P2;Temp;Humidity;BMP_temperature;BMP_pressure;BME280_temperature;BME280_humidity;BME280_pressure;Samples;Min_cycle;Max_cycle;Signal;HPM_P1;HPM_P2
2023/09/20 00:01:16;;;;;;;2.90;1.77;;;17.50;99.90;;;;;;5068650;28;20473;-53
2023/09/20 00:03:45;;;;;;;3.80;1.57;;;15.90;99.90;;;;;;5068376;28;20470;-53
2023/09/20 00:06:12;;;;;;;4.70;2.00;;;17.50;99.90;;;;;;5068025;28;20505;-53
2023/09/20 00:08:39;;;;;;;4.30;2.57;;;;;;;;;;5069223;28;20457;-53
2023/09/20 00:11:15;;;;;;;5.13;2.43;;;17.50;99.90;;;;;;5068036;28;20474;-55
2023/09/20 00:13:43;;;;;;;4.33;1.93;;;17.40;99.90;;;;;;5069187;28;20465;-55
2023/09/20 00:16:10;;;;;;;5.70;2.10;;;17.40;99.90;;;;;;5068656;28;20443;-49
2023/09/20 00:18:37;;;;;;;8.10;3.00;;;17.30;99.90;;;;;;5067973;28;20467;-50
2023/09/20 00:21:04;;;;;;;3.93;2.60;;;17.30;99.90;;;;;;5067921;28;20487;-48
2023/09/20 00:23:31;;;;;;;4.43;2.10;;;17.30;99.90;;;;;;5056571;28;20554;-52
2023/09/20 00:25:59;;;;;;;2.27;1.97;;;;;;;;;;5056523;28;20574;-53
2023/09/20 00:28:26;;;;;;;2.50;2.03;;;;;;;;;;5056524;28;20559;-50
2023/09/20 00:30:54;;;;;;;3.10;2.10;;;17.10;99.90;;;;;;5056521;28;20526;-50
2023/09/20 00:33:22;;;;;;;6.43;2.30;;;17.10;99.90;;;;;;5056185;28;20530;-47
2023/09/20 00:35:49;;;;;;;3.07;2.03;;;17.10;99.90;;;;;;5056377;28;20463;-49
2023/09/20 00:38:16;;;;;;;4.97;2.20;;;17.00;99.90;;;;;;5059479;28;20526;-52
2023/09/20 00:40:44;;;;;;;2.83;2.10;;;17.00;99.90;;;;;;5060618;28;20497;-51
2023/09/20 00:43:12;;;;;;;4.10;2.10;;;17.00;99.90;;;;;;5065404;28;20924;-46
2023/09/20 00:45:41;;;;;;;4.40;2.10;;;17.00;99.90;;;;;;5063826;28;20546;-48
2023/09/20 00:48:12;;;;;;;3.43;2.13;;;16.90;99.90;;;;;;5059074;28;20475;-54
2023/09/20 00:50:41;;;;;;;2.60;1.90;;;16.50;99.90;;;;;;5063668;28;20458;-46
2023/09/20 00:53:12;;;;;;;4.83;2.10;;;16.90;99.90;;;;;;5064445;28;20451;-49
2023/09/20 00:55:40;;;;;;;4.60;2.67;;;16.80;99.90;;;;;;5067570;28;20424;-46
2023/09/20 00:58:10;;;;;;;5.37;2.20;;;16.90;99.90;;;;;;5068599;28;20458;-50
2023/09/20 01:00:40;;;;;;;4.97;2.60;;;16.80;99.90;;;;;;5069743;28;20482;-52
2023/09/20 01:03:07;;;;;;;2.57;1.93;;;16.80;99.90;;;;;;5067008;28;20434;-47
2023/09/20 01:05:36;;;;;;;2.53;1.50;;;16.80;99.90;;;;;;5078157;28;20475;-50
2023/09/20 01:08:06;;;;;;;3.90;2.33;;;16.80;99.90;;;;;;5077988;28;20538;-51
2023/09/20 01:10:36;;;;;;;3.07;2.30;;;16.70;99.90;;;;;;5078237;28;20495;-51
2023/09/20 01:13:04;;;;;;;6.97;2.33;;;16.70;99.90;;;;;;5077863;28;20523;-47
2023/09/20 01:15:33;;;;;;;3.10;2.17;;;16.70;99.90;;;;;;5057503;28;20930;-48
2023/09/20 01:18:01;;;;;;;5.23;2.50;;;16.70;99.90;;;;;;5056038;28;20470;-54
2023/09/20 01:20:29;;;;;;;2.70;1.60;;;16.70;99.90;;;;;;5055983;28;20465;-50
2023/09/20 01:22:58;;;;;;;3.43;2.13;;;16.70;99.90;;;;;;5074753;28;20423;-48
2023/09/20 01:25:26;;;;;;;4.83;2.57;;;16.60;99.90;;;;;;5077353;28;20486;-47
2023/09/20 01:27:55;;;;;;;4.40;2.07;;;16.50;99.90;;;;;;5077053;28;20458;-53
2023/09/20 01:30:25;;;;;;;17.40;2.87;;;16.50;99.90;;;;;;5076957;28;20443;-52
2023/09/20 01:32:54;;;;;;;3.50;1.70;;;16.50;99.90;;;;;;5076951;28;20482;-51
2023/09/20 01:35:21;;;;;;;5.63;2.13;;;16.50;99.90;;;;;;5077409;28;20483;-49
2023/09/20 01:37:49;;;;;;;4.97;2.63;;;16.40;99.90;;;;;;5077238;28;20478;-53
2023/09/20 01:40:18;;;;;;;6.00;2.53;;;16.40;99.90;;;;;;5077514;28;20443;-50
2023/09/20 01:42:45;;;;;;;4.33;2.37;;;;;;;;;;5077213;28;20434;-51
2023/09/20 01:45:16;;;;;;;6.80;2.03;;;;;;;;;;5060227;28;20872;-48
2023/09/20 01:47:49;;;;;;;4.17;1.80;;;16.40;99.90;;;;;;5055273;28;20443;-50
2023/09/20 01:50:19;;;;;;;3.23;1.73;;;16.50;99.90;;;;;;5055949;28;20522;-48
2023/09/20 01:52:48;;;;;;;4.57;2.40;;;16.50;99.90;;;;;;5055048;28;20454;-51
2023/09/20 01:55:17;;;;;;;4.70;1.77;;;16.40;99.90;;;;;;5054954;28;20481;-51
2023/09/20 01:57:46;;;;;;;4.63;2.30;;;16.40;99.90;;;;;;5054991;28;20479;-51
2023/09/20 02:00:22;;;;;;;3.67;1.90;;;16.50;99.90;;;;;;5055207;28;20451;-50
2023/09/20 02:02:50;;;;;;;3.93;2.30;;;16.40;99.90;;;;;;5054717;28;20467;-50
2023/09/20 02:05:18;;;;;;;3.67;2.27;;;16.40;99.90;;;;;;5057084;28;20483;-46
2023/09/20 02:07:48;;;;;;;6.97;1.80;;;16.50;99.90;;;;;;5056795;28;20534;-50
2023/09/20 02:10:16;;;;;;;5.83;2.93;;;16.40;99.90;;;;;;5054972;28;20534;-53
2023/09/20 02:12:46;;;;;;;3.57;1.67;;;16.40;99.90;;;;;;5054651;28;20493;-51
2023/09/20 02:15:14;;;;;;;5.60;2.10;;;16.30;99.90;;;;;;5055023;28;20474;-50
2023/09/20 02:17:41;;;;;;;5.70;2.20;;;16.30;99.90;;;;;;5056077;28;20820;-51
2023/09/20 02:20:10;;;;;;;4.40;3.47;;;16.40;99.90;;;;;;5055812;28;20459;-46
2023/09/20 02:22:38;;;;;;;8.70;2.50;;;16.40;99.90;;;;;;5054755;28;20447;-47
2023/09/20 02:25:11;;;;;;;4.50;2.50;;;16.40;99.90;;;;;;5058390;28;20453;-50
2023/09/20 02:27:39;;;;;;;4.67;2.37;;;16.40;99.90;;;;;;5059555;28;20550;-51
2023/09/20 02:30:10;;;;;;;3.10;2.40;;;16.50;99.90;;;;;;5055489;28;20453;-52
2023/09/20 02:32:37;;;;;;;3.77;2.50;;;16.40;99.90;;;;;;5075475;28;20463;-50
2023/09/20 02:35:06;;;;;;;3.87;1.90;;;16.40;99.90;;;;;;5078870;28;20400;-48
2023/09/20 02:37:34;;;;;;;5.40;2.23;;;;;;;;;;5078487;28;20411;-51
2023/09/20 02:40:01;;;;;;;4.23;2.20;;;;;;;;;;5073649;28;20447;-49
2023/09/20 02:42:28;;;;;;;4.43;2.53;;;16.30;99.90;;;;;;5057770;28;20443;-53
2023/09/20 02:44:56;;;;;;;6.63;2.63;;;17.10;99.90;;;;;;5057917;28;20563;-45
2023/09/20 02:47:26;;;;;;;3.93;1.90;;;16.40;99.90;;;;;;5056262;28;20427;-51
2023/09/20 02:49:54;;;;;;;3.10;2.60;;;;;;;;;;5077887;28;20430;-48
2023/09/20 02:52:22;;;;;;;3.30;1.90;;;;;;;;;;5078489;28;20444;-47
2023/09/20 02:54:55;;;;;;;2.83;2.00;;;16.40;99.90;;;;;;5077189;28;20453;-51
2023/09/20 02:57:22;;;;;;;5.80;2.30;;;16.50;99.90;;;;;;5056161;28;20471;-51
2023/09/20 02:59:49;;;;;;;3.43;2.60;;;16.40;99.90;;;;;;5054260;28;20444;-47
2023/09/20 03:02:16;;;;;;;5.70;2.23;;;16.40;99.90;;;;;;5054591;28;20443;-48
2023/09/20 03:04:44;;;;;;;5.50;2.23;;;16.50;99.90;;;;;;5054522;28;20565;-50
2023/09/20 03:07:11;;;;;;;3.40;1.70;;;16.60;99.90;;;;;;5054416;28;20562;-50
2023/09/20 03:09:38;;;;;;;3.00;2.53;;;16.50;99.90;;;;;;5055471;28;20467;-55
2023/09/20 03:12:06;;;;;;;5.03;2.27;;;16.50;99.90;;;;;;5055412;28;20451;-53
2023/09/20 03:14:39;;;;;;;3.50;2.47;;;16.50;99.90;;;;;;5055043;28;20463;-50
2023/09/20 03:17:06;;;;;;;6.07;3.33;;;16.90;99.90;;;;;;5055133;28;20944;-50
2023/09/20 03:19:34;;;;;;;3.70;2.60;;;;;;;;;;5054154;28;20998;-48
2023/09/20 03:22:02;;;;;;;4.87;2.27;;;16.50;99.90;;;;;;5054311;28;20548;-54
2023/09/20 03:24:30;;;;;;;2.00;1.80;;;16.60;99.90;;;;;;5080178;28;20496;-49
2023/09/20 03:26:57;;;;;;;6.60;2.33;;;16.80;99.90;;;;;;5078808;28;20480;-50
2023/09/20 03:29:26;;;;;;;1.90;1.70;;;;;;;;;;5058164;28;20479;-52
2023/09/20 03:31:53;;;;;;;2.73;1.83;;;16.80;99.90;;;;;;5058982;28;20842;-53
2023/09/20 03:34:21;;;;;;;5.37;2.23;;;;;;;;;;5058757;28;20481;-51
2023/09/20 03:36:50;;;;;;;4.10;1.97;;;16.80;99.90;;;;;;5058756;28;20435;-52
2023/09/20 03:39:24;;;;;;;2.90;1.93;;;16.70;99.90;;;;;;5057913;28;20455;-51
2023/09/20 03:41:51;;;;;;;2.30;1.83;;;16.70;99.90;;;;;;5058427;28;20435;-52
2023/09/20 03:44:19;;;;;;;5.23;2.50;;;16.80;99.90;;;;;;5057889;28;20533;-46
2023/09/20 03:46:47;;;;;;;3.23;2.20;;;16.80;99.90;;;;;;5057730;28;20518;-50
2023/09/20 03:49:14;;;;;;;2.70;1.93;;;16.80;99.90;;;;;;5057445;28;20592;-49
2023/09/20 03:51:41;;;;;;;8.63;2.27;;;16.80;99.90;;;;;;5057739;28;20447;-51
2023/09/20 03:54:09;;;;;;;2.57;2.03;;;16.80;99.90;;;;;;5057695;28;20534;-48
2023/09/20 03:56:37;;;;;;;7.10;3.00;;;16.60;99.90;;;;;;5057708;28;20766;-48
2023/09/20 03:59:04;;;;;;;6.57;2.23;;;17.20;99.90;;;;;;5057251;28;20474;-50
2023/09/20 04:01:32;;;;;;;13.57;2.40;;;16.40;99.90;;;;;;5057268;28;20439;-54
2023/09/20 04:03:59;;;;;;;4.53;2.50;;;;;;;;;;5057516;28;20503;-50
2023/09/20 04:06:29;;;;;;;8.50;2.40;;;16.30;99.90;;;;;;5057871;28;20474;-53
2023/09/20 04:08:56;;;;;;;4.10;2.23;;;16.80;99.90;;;;;;5057891;28;20448;-51
2023/09/20 04:11:23;;;;;;;4.47;2.90;;;16.20;99.90;;;;;;5058079;28;20856;-52
2023/09/20 04:13:53;;;;;;;3.30;2.27;;;16.60;99.90;;;;;;5057398;28;20534;-52
2023/09/20 04:16:20;;;;;;;2.27;2.03;;;16.10;99.90;;;;;;5056860;28;20474;-54
2023/09/20 04:18:48;;;;;;;6.57;2.17;;;;;;;;;;5057225;28;20565;-53
2023/09/20 04:21:15;;;;;;;3.93;2.87;;;16.30;99.90;;;;;;5056851;28;20475;-52
2023/09/20 04:23:42;;;;;;;4.37;2.37;;;16.40;99.90;;;;;;5056692;28;20550;-50
2023/09/20 04:26:09;;;;;;;3.87;1.87;;;;;;;;;;5056862;28;20503;-51
2023/09/20 04:28:36;;;;;;;5.33;2.57;;;16.30;99.90;;;;;;5057171;28;20502;-51
2023/09/20 04:31:04;;;;;;;4.90;2.53;;;16.40;99.90;;;;;;5056721;28;20441;-52
2023/09/20 04:33:32;;;;;;;7.73;2.60;;;16.30;99.90;;;;;;5056976;28;20762;-50
2023/09/20 04:36:00;;;;;;;8.10;2.30;;;16.40;99.90;;;;;;5056581;28;20456;-53
2023/09/20 04:38:27;;;;;;;4.20;2.47;;;16.30;99.90;;;;;;5056911;28;20439;-49
2023/09/20 04:40:56;;;;;;;3.47;2.10;;;16.60;99.90;;;;;;5056459;28;20443;-53
2023/09/20 04:43:23;;;;;;;7.10;2.20;;;16.20;99.90;;;;;;5056439;28;20450;-52
2023/09/20 04:45:49;;;;;;;2.10;1.70;;;16.30;99.90;;;;;;5056354;28;20452;-54
2023/09/20 04:48:18;;;;;;;4.23;2.53;;;16.20;99.90;;;;;;5056611;28;20478;-51
2023/09/20 04:50:45;;;;;;;4.73;2.00;;;;;;;;;;5056619;28;20435;-52
2023/09/20 04:53:13;;;;;;;5.27;2.17;;;;;;;;;;5056332;28;20904;-52
2023/09/20 04:55:41;;;;;;;3.00;2.53;;;16.40;99.90;;;;;;5056240;28;20924;-52
2023/09/20 04:58:09;;;;;;;3.63;2.20;;;;;;;;;;5056168;28;20537;-52
2023/09/20 05:00:37;;;;;;;4.37;3.10;;;16.20;99.90;;;;;;5056432;28;20873;-53
2023/09/20 05:03:04;;;;;;;3.70;2.20;;;16.30;99.90;;;;;;5056380;28;20443;-51
2023/09/20 05:05:32;;;;;;;3.07;2.17;;;16.20;99.90;;;;;;5056292;28;20494;-53
2023/09/20 05:07:59;;;;;;;5.33;2.53;;;16.30;99.90;;;;;;5056225;28;20483;-51
2023/09/20 05:10:25;;;;;;;4.23;2.70;;;16.20;99.90;;;;;;5056226;28;20523;-52
2023/09/20 05:12:52;;;;;;;3.50;1.80;;;16.10;99.90;;;;;;5056129;28;20554;-52
2023/09/20 05:15:19;;;;;;;2.83;1.73;;;16.30;99.90;;;;;;5055876;28;20448;-53
2023/09/20 05:17:48;;;;;;;4.60;2.07;;;16.00;99.90;;;;;;5056023;28;20835;-52
2023/09/20 05:20:16;;;;;;;10.03;2.93;;;16.20;99.90;;;;;;5056970;28;20516;-54
2023/09/20 05:22:44;;;;;;;2.80;2.10;;;16.20;99.90;;;;;;5055974;28;20530;-54
2023/09/20 05:25:11;;;;;;;4.90;2.13;;;15.80;99.90;;;;;;5055601;28;20532;-51
2023/09/20 05:27:38;;;;;;;3.60;2.20;;;16.10;99.90;;;;;;5055351;28;20561;-54
2023/09/20 05:30:06;;;;;;;3.97;2.50;;;15.90;99.90;;;;;;5055491;28;20471;-54
2023/09/20 05:32:33;;;;;;;2.53;2.00;;;16.40;99.90;;;;;;5057715;28;20506;-50
2023/09/20 05:35:01;;;;;;;5.57;2.10;;;;;;;;;;5070629;28;20439;-54
2023/09/20 05:37:28;;;;;;;2.37;1.70;;;16.20;99.90;;;;;;5071128;28;20472;-53
2023/09/20 05:39:56;;;;;;;6.27;3.03;;;16.20;99.90;;;;;;5058202;28;20474;-48
2023/09/20 05:42:23;;;;;;;4.90;2.40;;;16.20;99.90;;;;;;5055514;28;20454;-52
2023/09/20 05:44:50;;;;;;;4.40;2.67;;;17.00;99.90;;;;;;5055300;28;20481;-52
2023/09/20 05:47:16;;;;;;;4.37;2.30;;;16.40;99.90;;;;;;5054746;28;20479;-52
2023/09/20 05:49:44;;;;;;;5.07;2.20;;;16.20;99.90;;;;;;5055050;28;20473;-51
2023/09/20 05:52:11;;;;;;;4.60;2.40;;;16.50;99.90;;;;;;5055515;28;20473;-50
2023/09/20 05:54:43;;;;;;;5.87;2.13;;;16.40;99.90;;;;;;5078527;28;20447;-49
2023/09/20 05:57:12;;;;;;;6.93;2.20;;;16.50;99.90;;;;;;5079471;28;20402;-53
2023/09/20 05:59:42;;;;;;;4.33;2.37;;;16.20;99.90;;;;;;5079472;28;20428;-51
2023/09/20 06:02:08;;;;;;;4.20;2.30;;;16.50;99.90;;;;;;5079330;28;20404;-52
2023/09/20 06:04:38;;;;;;;2.60;2.27;;;17.00;99.90;;;;;;5079257;28;20400;-45
2023/09/20 06:07:07;;;;;;;3.47;1.90;;;16.60;99.90;;;;;;5078916;28;20475;-50
2023/09/20 06:09:34;;;;;;;7.80;2.33;;;;;;;;;;5079226;28;20474;-53
2023/09/20 06:12:03;;;;;;;3.87;2.17;;;16.40;99.90;;;;;;5079198;28;20400;-46
2023/09/20 06:14:31;;;;;;;5.70;2.03;;;16.40;99.90;;;;;;5076257;28;20467;-48
2023/09/20 06:17:00;;;;;;;2.27;2.03;;;16.40;99.90;;;;;;5055041;28;20454;-50
2023/09/20 06:19:30;;;;;;;3.87;2.30;;;;;;;;;;5054925;28;20471;-51
2023/09/20 06:21:57;;;;;;;4.50;2.20;;;;;;;;;;5055470;28;20424;-51
2023/09/20 06:24:29;;;;;;;6.40;2.50;;;16.60;99.90;;;;;;5076618;28;20451;-49
2023/09/20 06:27:03;;;;;;;6.03;2.17;;;16.80;99.90;;;;;;5078511;28;20451;-47
2023/09/20 06:29:33;;;;;;;3.97;2.50;;;16.80;99.90;;;;;;5078945;28;20411;-52
2023/09/20 06:32:01;;;;;;;4.27;2.67;;;16.20;99.90;;;;;;5078171;28;20443;-56
2023/09/20 06:34:28;;;;;;;3.53;2.27;;;16.80;99.90;;;;;;5055290;28;20995;-54
2023/09/20 06:36:55;;;;;;;4.60;2.30;;;;;;;;;;5072345;28;20455;-45
2023/09/20 06:39:22;;;;;;;3.67;2.63;;;16.70;99.90;;;;;;5063989;28;20486;-50
2023/09/20 06:41:49;;;;;;;2.37;1.83;;;17.00;99.90;;;;;;5078611;28;20427;-57
2023/09/20 06:44:16;;;;;;;2.93;2.20;;;16.90;99.90;;;;;;5077896;28;20416;-49
2023/09/20 06:46:45;;;;;;;3.93;2.00;;;17.00;99.90;;;;;;5075707;28;20498;-50
2023/09/20 06:49:12;;;;;;;6.63;2.10;;;;;;;;;;5075767;28;20485;-53
2023/09/20 06:51:42;;;;;;;3.70;2.13;;;;;;;;;;5075657;28;20549;-53
2023/09/20 06:54:09;;;;;;;2.30;1.70;;;17.40;99.90;;;;;;5076101;28;20459;-55
2023/09/20 06:56:36;;;;;;;5.23;2.27;;;17.40;99.90;;;;;;5076182;28;20435;-54
2023/09/20 06:59:06;;;;;;;3.47;1.93;;;17.40;99.90;;;;;;5080254;28;20443;-50
2023/09/20 07:01:33;;;;;;;1.87;1.60;;;17.60;99.90;;;;;;5080234;28;20484;-51
2023/09/20 07:04:02;;;;;;;3.77;2.27;;;17.60;99.90;;;;;;5080126;28;20786;-51
2023/09/20 07:06:31;;;;;;;4.17;2.50;;;17.80;99.90;;;;;;5080063;28;20459;-53
2023/09/20 07:08:58;;;;;;;3.60;2.20;;;17.80;99.90;;;;;;5080587;28;20447;-52
2023/09/20 07:11:26;;;;;;;3.53;1.87;;;18.60;99.90;;;;;;5079884;28;20423;-55
2023/09/20 07:13:53;;;;;;;4.83;2.30;;;;;;;;;;5079668;28;20471;-52
2023/09/20 07:16:20;;;;;;;3.20;2.13;;;18.20;99.90;;;;;;5080117;28;20431;-52
2023/09/20 07:18:48;;;;;;;3.47;1.93;;;18.40;99.90;;;;;;5079493;28;20481;-54
2023/09/20 07:21:16;;;;;;;2.13;1.57;;;18.50;99.90;;;;;;5078653;28;20453;-52
2023/09/20 07:23:43;;;;;;;3.50;1.90;;;18.70;99.90;;;;;;5066988;28;20916;-56
2023/09/20 07:26:12;;;;;;;3.97;2.43;;;18.40;99.90;;;;;;5057598;28;20475;-53
2023/09/20 07:28:42;;;;;;;3.33;1.90;;;18.80;99.90;;;;;;5058097;28;20463;-52
2023/09/20 07:31:09;;;;;;;4.90;2.60;;;18.70;99.90;;;;;;5058060;28;20475;-52
2023/09/20 07:33:38;;;;;;;3.90;2.20;;;19.00;99.90;;;;;;5071761;28;20470;-53
2023/09/20 07:36:07;;;;;;;6.93;2.17;;;;;;;;;;5079528;28;20538;-55
2023/09/20 07:38:36;;;;;;;8.00;1.90;;;19.20;99.90;;;;;;5079754;28;20435;-50
2023/09/20 07:41:12;;;;;;;4.47;1.70;;;19.50;99.90;;;;;;5079848;28;20483;-48
2023/09/20 07:43:39;;;;;;;4.00;2.03;;;;;;;;;;5080000;28;20455;-48
2023/09/20 07:46:08;;;;;;;4.33;1.97;;;19.40;99.90;;;;;;5079871;28;20434;-54
2023/09/20 07:48:37;;;;;;;7.63;2.00;;;19.50;99.90;;;;;;5061386;28;20494;-54
2023/09/20 07:51:10;;;;;;;4.30;2.20;;;;;;;;;;5057465;28;20520;-53
2023/09/20 07:53:39;;;;;;;2.00;1.63;;;19.80;99.90;;;;;;5057641;28;20432;-52
2023/09/20 07:56:11;;;;;;;2.50;2.10;;;;;;;;;;5057721;28;20427;-53
2023/09/20 07:58:40;;;;;;;2.57;2.10;;;19.60;99.90;;;;;;5057677;28;20420;-50
2023/09/20 08:01:18;;;;;;;4.57;1.67;;;18.60;99.90;;;;;;5057188;28;20461;-53
2023/09/20 08:03:50;;;;;;;2.13;1.90;;;;;;;;;;5057535;28;20774;-52
2023/09/20 08:06:18;;;;;;;3.33;1.87;;;20.30;99.90;;;;;;5057436;28;20482;-52
2023/09/20 08:08:46;;;;;;;6.00;1.97;;;20.30;99.90;;;;;;5056329;28;20569;-53
2023/09/20 08:11:13;;;;;;;6.63;1.83;;;20.40;99.90;;;;;;5057173;28;20475;-49
2023/09/20 08:13:40;;;;;;;2.40;1.80;;;20.40;99.90;;;;;;5056946;28;20447;-52
2023/09/20 08:16:09;;;;;;;2.17;1.60;;;20.90;99.90;;;;;;5057200;28;20447;-52
2023/09/20 08:21:22;;;;;;;3.47;2.13;;;;;;;;;;5057316;28;20403;-48
2023/09/20 08:59:52;;;;;;;5.63;1.97;;;27.60;99.90;;;;;;5061215;28;20423;-55
2023/09/20 09:02:23;;;;;;;2.70;1.80;;;27.30;94.80;;;;;;5060786;28;20480;-53
2023/09/20 09:04:53;;;;;;;5.13;1.80;;;27.40;99.90;;;;;;5057059;28;20448;-52
2023/09/20 09:07:22;;;;;;;2.90;2.00;;;;;;;;;;5055862;28;20950;-54
2023/09/20 09:09:49;;;;;;;4.07;1.80;;;;;;;;;;5055993;28;20473;-53
2023/09/20 09:12:18;;;;;;;2.67;1.80;;;27.70;93.30;;;;;;5073051;28;20599;-55
2023/09/20 09:14:48;;;;;;;3.03;2.30;;;27.90;99.90;;;;;;5071149;28;20485;-52
2023/09/20 09:17:18;;;;;;;3.03;2.03;;;28.00;92.30;;;;;;5067144;28;20439;-53
2023/09/20 09:19:45;;;;;;;7.90;2.03;;;28.40;99.90;;;;;;5067497;28;20471;-54
2023/09/20 09:22:14;;;;;;;4.33;1.70;;;27.40;99.90;;;;;;5070616;28;20467;-51
2023/09/20 09:24:47;;;;;;;5.33;1.80;;;26.70;99.90;;;;;;5058237;28;21011;-52
2023/09/20 09:27:15;;;;;;;2.90;2.20;;;25.60;99.90;;;;;;5055364;28;20566;-51
2023/09/20 09:29:44;;;;;;;4.33;2.27;;;24.90;99.90;;;;;;5055632;28;20443;-50
2023/09/20 09:32:13;;;;;;;3.00;2.13;;;24.60;99.90;;;;;;5056400;28;20509;-53
2023/09/20 09:34:41;;;;;;;6.10;2.17;;;;;;;;;;5055992;28;20907;-51
2023/09/20 09:37:08;;;;;;;5.37;1.70;;;;;;;;;;5078923;28;20455;-49
2023/09/20 09:39:36;;;;;;;4.30;2.70;;;24.20;99.90;;;;;;5067339;28;20443;-52
2023/09/20 09:42:09;;;;;;;3.87;1.70;;;23.30;99.90;;;;;;5063843;28;20451;-47
2023/09/20 09:44:51;;;;;;;3.77;2.00;;;23.40;99.90;;;;;;5079609;28;20436;-54
2023/09/20 09:47:19;;;;;;;4.53;1.80;;;23.10;99.90;;;;;;5076700;28;20493;-48
2023/09/20 09:49:48;;;;;;;2.20;1.90;;;23.10;99.90;;;;;;5064727;28;20404;-51
2023/09/20 09:52:17;;;;;;;2.60;2.00;;;23.10;99.90;;;;;;5077078;28;20446;-51
2023/09/20 09:54:45;;;;;;;3.73;1.80;;;23.30;99.90;;;;;;5063213;28;20814;-51
2023/09/20 09:57:12;;;;;;;4.90;2.40;;;23.50;99.90;;;;;;5069444;28;20438;-51
2023/09/20 09:59:40;;;;;;;4.90;1.90;;;24.60;99.90;;;;;;5073308;28;20479;-50
2023/09/20 10:02:18;;;;;;;3.03;1.40;;;25.30;99.90;;;;;;5067204;28;20490;-44
2023/09/20 10:04:51;;;;;;;3.80;1.97;;;26.10;99.90;;;;;;5073945;28;20467;-55
2023/09/20 10:07:25;;;;;;;3.57;1.80;;;26.20;99.90;;;;;;5060037;28;20439;-51
2023/09/20 10:09:57;;;;;;;7.97;2.17;;;26.70;99.90;;;;;;5079205;28;20546;-49
2023/09/20 10:12:25;;;;;;;3.73;2.07;;;27.00;99.90;;;;;;5075265;28;20428;-49
2023/09/20 10:14:59;;;;;;;7.93;1.90;;;27.00;95.00;;;;;;5069772;28;20446;-50
2023/09/20 10:17:30;;;;;;;5.40;2.67;;;26.90;95.20;;;;;;5062365;28;20489;-53
2023/09/20 10:19:57;;;;;;;3.43;2.10;;;26.90;99.90;;;;;;5072304;28;20427;-49
2023/09/20 10:22:26;;;;;;;2.20;1.90;;;27.80;99.90;;;;;;5071360;28;20466;-48
2023/09/20 10:24:55;;;;;;;3.23;1.73;;;27.40;94.40;;;;;;5071076;28;20911;-53
2023/09/20 10:27:23;;;;;;;4.20;2.50;;;27.20;99.90;;;;;;5070303;28;20431;-47
2023/09/20 10:30:01;;;;;;;8.57;2.40;;;27.00;93.90;;;;;;5079039;28;20416;-46
2023/09/20 10:32:36;;;;;;;3.30;2.07;;;26.50;94.60;;;;;;5054552;28;20481;-53
2023/09/20 10:35:22;;;;;;;3.63;2.40;;;25.50;99.90;;;;;;5054993;28;20446;-51
2023/09/20 10:38:25;;;;;;;2.77;2.43;;;25.40;99.90;;;;;;5074914;28;20430;-51
2023/09/20 11:14:47;;;;;;;3.77;1.90;;;26.70;99.90;;;;;;6083479;23;21490;-53
2023/09/20 11:17:17;;;;;;;3.23;2.03;;;26.50;95.00;;;;;;4992637;28;20439;-44
2023/09/20 11:19:44;;;;;;;2.10;1.90;;;26.20;95.20;;;;;;4997431;28;20486;-48
2023/09/20 11:22:11;;;;;;;3.93;1.80;;;25.70;99.90;;;;;;4997314;28;20454;-51
2023/09/20 11:24:41;;;;;;;3.30;2.07;;;25.70;96.50;;;;;;4997600;28;20479;-53
2023/09/20 11:27:08;;;;;;;3.60;2.03;;;25.50;96.80;;;;;;4997598;28;20463;-45
2023/09/20 11:29:37;;;;;;;6.50;2.70;;;25.20;99.90;;;;;;4998225;28;20518;-52
2023/09/20 11:32:10;;;;;;;2.53;2.03;;;25.00;97.80;;;;;;5009060;28;20453;-48
2023/09/20 11:34:46;;;;;;;5.57;2.60;;;24.80;98.60;;;;;;5001176;28;20423;-43
2023/09/20 11:37:15;;;;;;;5.77;2.47;;;24.50;99.20;;;;;;5018242;28;20441;-48
2023/09/20 11:39:44;;;;;;;3.83;2.00;;;24.30;99.60;;;;;;5012055;28;20445;-47
2023/09/20 11:42:12;;;;;;;2.27;1.80;;;23.60;99.90;;;;;;5000359;28;20432;-52
2023/09/20 11:44:39;;;;;;;2.20;1.60;;;23.80;99.90;;;;;;5000780;28;20453;-51
2023/09/20 11:47:09;;;;;;;2.60;1.77;;;23.80;99.90;;;;;;4997957;28;20492;-52
2023/09/20 11:49:36;;;;;;;1.87;1.50;;;23.50;99.90;;;;;;5019171;28;20496;-43
2023/09/20 11:52:03;;;;;;;4.33;1.90;;;23.80;99.90;;;;;;5020590;28;20481;-51
2023/09/20 11:54:31;;;;;;;3.40;1.87;;;24.00;99.90;;;;;;5021334;28;20422;-44
2023/09/20 11:57:04;;;;;;;3.63;1.77;;;24.20;99.90;;;;;;5013620;28;20423;-48
2023/09/20 11:59:40;;;;;;;2.57;1.60;;;24.30;99.90;;;;;;5002014;28;20423;-47
2023/09/20 12:02:12;;;;;;;3.00;1.87;;;24.50;99.90;;;;;;5001715;28;20399;-48
2023/09/20 12:04:39;;;;;;;2.97;1.50;;;24.60;99.90;;;;;;4989993;28;20482;-53
2023/09/20 12:07:07;;;;;;;2.00;1.70;;;24.60;99.90;;;;;;4980130;28;20900;-53
2023/09/20 12:09:34;;;;;;;3.70;2.30;;;24.70;99.90;;;;;;4977941;28;20494;-51
2023/09/20 12:12:01;;;;;;;2.80;1.67;;;24.70;99.90;;;;;;4978267;28;20478;-51
2023/09/20 12:14:28;;;;;;;2.73;2.03;;;;;;;;;;4978109;28;20474;-53
2023/09/20 12:16:56;;;;;;;3.63;1.60;;;24.70;99.90;;;;;;4977782;28;20923;-49
2023/09/20 12:19:24;;;;;;;3.80;2.30;;;24.80;99.90;;;;;;4977848;28;20746;-51
2023/09/20 12:21:51;;;;;;;2.13;1.80;;;24.80;99.90;;;;;;4977986;28;21194;-57
2023/09/20 12:24:18;;;;;;;2.07;1.80;;;24.80;99.90;;;;;;4979717;28;20502;-55
2023/09/20 12:26:46;;;;;;;2.33;1.70;;;24.70;99.90;;;;;;4989758;28;20525;-50
2023/09/20 12:29:13;;;;;;;2.10;1.90;;;24.60;99.90;;;;;;4980159;28;20485;-53
2023/09/20 12:31:40;;;;;;;2.27;1.50;;;24.50;99.90;;;;;;4978120;28;20533;-54
2023/09/20 12:34:07;;;;;;;1.30;1.20;;;24.40;99.90;;;;;;4978273;28;20435;-52
2023/09/20 12:36:35;;;;;;;6.03;2.90;;;24.50;99.90;;;;;;4999228;28;20435;-47
2023/09/20 12:39:05;;;;;;;2.70;1.83;;;24.50;99.90;;;;;;5001112;28;20635;-49
2023/09/20 12:41:32;;;;;;;4.57;2.20;;;24.50;99.90;;;;;;5000980;28;20451;-49
2023/09/20 12:43:59;;;;;;;6.33;1.50;;;24.60;99.90;;;;;;5000452;28;20426;-48
2023/09/20 12:46:26;;;;;;;5.60;1.73;;;24.60;99.90;;;;;;4998881;28;20455;-52
2023/09/20 12:48:54;;;;;;;2.47;1.80;;;24.40;99.90;;;;;;4995801;28;20502;-53
2023/09/20 12:51:21;;;;;;;3.23;1.87;;;24.60;99.90;;;;;;4996182;28;20451;-52
2023/09/20 12:53:50;;;;;;;2.23;1.47;;;24.60;99.90;;;;;;4961590;28;20957;-49
2023/09/20 12:56:17;;;;;;;4.00;1.80;;;24.70;99.90;;;;;;4979872;28;20440;-43
2023/09/20 12:58:47;;;;;;;5.83;1.43;;;24.80;99.90;;;;;;4980252;28;20424;-47
2023/09/20 13:01:14;;;;;;;2.90;2.43;;;24.70;99.90;;;;;;4980752;28;20432;-48
2023/09/20 13:03:44;;;;;;;2.97;1.87;;;24.90;99.90;;;;;;4981059;28;20486;-49
2023/09/20 13:06:14;;;;;;;7.00;1.90;;;25.00;99.90;;;;;;4981165;28;20490;-42
2023/09/20 13:08:41;;;;;;;2.23;1.37;;;25.10;99.90;;;;;;4981191;28;20474;-45
2023/09/20 13:11:10;;;;;;;2.30;1.67;;;25.30;99.90;;;;;;4993486;28;20447;-48
2023/09/20 13:13:38;;;;;;;5.27;2.13;;;25.40;99.40;;;;;;5000702;28;20411;-50
2023/09/20 13:16:06;;;;;;;1.63;1.30;;;25.30;98.90;;;;;;4996642;28;20455;-47
2023/09/20 13:18:34;;;;;;;2.47;1.80;;;25.30;98.90;;;;;;4980786;28;20848;-48
2023/09/20 13:21:04;;;;;;;2.70;2.30;;;25.60;99.90;;;;;;4999753;28;20419;-49
2023/09/20 13:23:31;;;;;;;3.03;1.70;;;25.40;98.60;;;;;;4999578;28;20470;-45
2023/09/20 13:25:59;;;;;;;2.77;1.50;;;25.50;98.20;;;;;;4999470;28;20419;-47
2023/09/20 13:28:28;;;;;;;3.77;1.53;;;25.60;98.40;;;;;;4999379;28;20466;-44
2023/09/20 13:30:55;;;;;;;7.10;2.13;;;25.70;98.00;;;;;;5000148;28;20486;-43
2023/09/20 13:33:22;;;;;;;2.30;1.97;;;25.60;97.90;;;;;;4999952;28;20426;-45
2023/09/20 13:35:49;;;;;;;2.47;1.40;;;25.60;97.90;;;;;;5000161;28;20423;-48
2023/09/20 13:38:16;;;;;;;2.27;1.60;;;25.60;97.50;;;;;;5000048;28;20419;-46
2023/09/20 13:40:42;;;;;;;2.10;1.50;;;25.60;97.70;;;;;;5000195;28;20447;-48
2023/09/20 13:43:13;;;;;;;3.80;1.60;;;25.60;97.80;;;;;;5000037;28;20454;-47
2023/09/20 13:45:44;;;;;;;4.07;1.83;;;25.60;97.70;;;;;;5000022;28;20446;-42
2023/09/20 13:48:12;;;;;;;2.90;1.53;;;25.60;99.90;;;;;;5000017;28;20623;-46
2023/09/20 13:50:40;;;;;;;9.53;2.10;;;25.60;96.80;;;;;;4999756;28;20455;-47
2023/09/20 13:53:07;;;;;;;2.70;1.90;;;25.70;96.70;;;;;;5000097;28;20411;-52
2023/09/20 13:55:34;;;;;;;2.90;1.63;;;26.40;99.90;;;;;;4999959;28;20419;-44
2023/09/20 13:58:02;;;;;;;2.43;2.10;;;25.80;99.90;;;;;;4999948;28;20454;-47
2023/09/20 14:00:30;;;;;;;1.90;1.53;;;25.90;95.80;;;;;;4999743;28;20425;-46
2023/09/20 14:03:00;;;;;;;3.23;1.70;;;25.90;95.50;;;;;;4999650;28;20447;-51
2023/09/20 14:05:27;;;;;;;3.10;1.90;;;25.80;95.60;;;;;;4999607;28;20423;-48
2023/09/20 14:07:56;;;;;;;3.03;2.07;;;25.70;95.70;;;;;;4999015;28;20447;-45
2023/09/20 14:10:24;;;;;;;3.57;3.20;;;25.60;95.30;;;;;;4999494;28;20479;-46
2023/09/20 14:12:53;;;;;;;3.40;2.70;;;25.40;95.40;;;;;;4999490;28;20463;-48
2023/09/20 14:15:22;;;;;;;3.23;1.97;;;25.20;96.00;;;;;;4999524;28;20431;-46
2023/09/20 14:17:51;;;;;;;2.57;2.03;;;25.00;96.00;;;;;;4999418;28;20411;-46